createdAt,value
2018-09-01T00:00:09.721Z,91.35
2018-09-01T00:02:38.715Z,91.57
2018-09-01T00:05:08.385Z,92.19
2018-09-01T00:07:37.242Z,91.50
2018-09-01T00:10:07.689Z,91.38
2018-09-01T00:12:37.347Z,91.33
2018-09-01T00:15:07.215Z,92.24
2018-09-01T00:17:36.560Z,91.47
2018-09-01T00:20:05.949Z,91.88
2018-09-01T00:22:35.526Z,91.36
2018-09-01T00:25:04.750Z,90.87
2018-09-01T00:27:34.259Z,91.12
2018-09-01T00:30:04.361Z,91.52
2018-09-01T00:32:33.145Z,91.38
2018-09-01T00:35:03.026Z,91.11
2018-09-01T00:37:37.016Z,91.13
2018-09-01T00:40:07.079Z,90.67
2018-09-01T00:42:37.030Z,91.01
2018-09-01T00:45:06.699Z,90.58
2018-09-01T00:47:35.857Z,91.01
2018-09-01T00:50:05.800Z,91.46
2018-09-01T00:52:34.794Z,91.65
2018-09-01T00:55:03.637Z,91.96
2018-09-01T00:57:32.983Z,90.66
2018-09-01T01:00:01.820Z,90.13
2018-09-01T01:02:30.574Z,89.96
2018-09-01T01:04:59.887Z,90.43
2018-09-01T01:07:28.683Z,90.33
2018-09-01T01:09:57.581Z,89.95
2018-09-01T01:12:27.167Z,90.26
2018-09-01T01:14:55.984Z,90.25
2018-09-01T01:17:25.303Z,89.87
2018-09-01T01:19:54.120Z,90.63
2018-09-01T01:22:23.404Z,90.82
2018-09-01T01:24:52.199Z,90.46
2018-09-01T01:27:21.916Z,90.60
2018-09-01T01:29:51.574Z,89.98
2018-09-01T01:32:20.324Z,90.20
2018-09-01T01:34:50.372Z,90.81
2018-09-01T01:37:19.104Z,90.45
2018-09-01T01:39:48.427Z,90.59
2018-09-01T01:42:17.951Z,90.28
2018-09-01T01:44:47.295Z,90.21
2018-09-01T01:47:16.083Z,90.11
2018-09-01T01:49:45.729Z,90.02
2018-09-01T01:52:14.822Z,90.34
2018-09-01T01:54:43.557Z,89.83
2018-09-01T01:57:13.052Z,89.98
2018-09-01T01:59:41.906Z,90.49
2018-09-01T02:02:10.956Z,90.64
2018-09-01T02:04:40.255Z,90.32
2018-09-01T02:07:09.319Z,90.48
2018-09-01T02:09:38.124Z,89.86
2018-09-01T02:12:08.529Z,89.88
2018-09-01T02:14:37.281Z,90.31
2018-09-01T02:17:07.009Z,90.37
2018-09-01T02:19:36.071Z,90.78
2018-09-01T02:22:05.526Z,90.25
2018-09-01T02:24:34.751Z,90.20
2018-09-01T02:27:03.846Z,90.76
2018-09-01T02:29:33.684Z,89.85
2018-09-01T02:32:02.704Z,89.86
2018-09-01T02:34:32.165Z,89.28
2018-09-01T02:37:01.015Z,90.10
2018-09-01T02:39:30.434Z,89.40
2018-09-01T02:41:59.375Z,90.10
2018-09-01T02:44:28.938Z,90.21
2018-09-01T02:46:57.740Z,89.49
2018-09-01T02:49:27.263Z,90.01
2018-09-01T02:51:56.181Z,90.13
2018-09-01T02:54:24.934Z,89.24
2018-09-01T02:56:54.429Z,89.96
2018-09-01T02:59:23.191Z,90.01
2018-09-01T03:01:52.057Z,89.66
2018-09-01T03:04:22.296Z,89.23
2018-09-01T03:06:54.633Z,89.43
2018-09-01T03:09:23.917Z,88.99
2018-09-01T03:11:54.298Z,89.51
2018-09-01T03:14:23.935Z,88.80
2018-09-01T03:16:54.419Z,89.50
2018-09-01T03:19:23.639Z,89.37
2018-09-01T03:21:52.468Z,88.85
2018-09-01T03:24:21.311Z,89.33
2018-09-01T03:26:50.080Z,89.13
2018-09-01T03:29:18.954Z,88.78
2018-09-01T03:31:48.601Z,88.81
2018-09-01T03:34:18.203Z,88.50
2018-09-01T03:36:47.047Z,89.34
2018-09-01T03:39:16.453Z,89.22
2018-09-01T03:41:45.415Z,88.60
2018-09-01T03:44:14.944Z,88.60
2018-09-01T03:46:43.783Z,89.03
2018-09-01T03:49:13.414Z,89.18
2018-09-01T03:51:42.188Z,89.16
2018-09-01T03:54:11.014Z,88.73
2018-09-01T03:56:40.346Z,88.36
2018-09-01T03:59:09.192Z,88.98
2018-09-01T04:01:37.973Z,88.18
2018-09-01T04:04:06.920Z,88.93
2018-09-01T04:06:37.017Z,89.12
2018-09-01T04:09:07.129Z,89.27
2018-09-01T04:11:36.760Z,89.34
2018-09-01T04:14:05.883Z,89.11
2018-09-01T04:16:35.984Z,88.57
2018-09-01T04:19:10.119Z,88.48
2018-09-01T04:21:38.927Z,88.88
2018-09-01T04:24:07.771Z,89.15
2018-09-01T04:26:37.124Z,89.04
2018-09-01T04:29:06.440Z,88.56
2018-09-01T04:31:36.196Z,88.79
2018-09-01T04:34:05.860Z,88.48
2018-09-01T04:36:35.256Z,88.83
2018-09-01T04:39:06.270Z,88.25
2018-09-01T04:41:35.475Z,88.74
2018-09-01T04:44:05.014Z,88.08
2018-09-01T04:46:33.909Z,88.78
2018-09-01T04:49:03.343Z,88.46
2018-09-01T04:51:32.123Z,88.98
2018-09-01T04:54:01.061Z,89.18
2018-09-01T04:56:30.376Z,88.78
2018-09-01T04:58:59.564Z,88.82
2018-09-01T05:01:28.547Z,88.18
2018-09-01T05:03:57.210Z,87.63
2018-09-01T05:06:26.761Z,87.96
2018-09-01T05:08:55.532Z,88.75
2018-09-01T05:11:25.083Z,88.32
2018-09-01T05:13:53.871Z,88.29
2018-09-01T05:16:23.408Z,87.88
2018-09-01T05:18:52.433Z,87.26
2018-09-01T05:21:21.224Z,86.93
2018-09-01T05:23:50.029Z,87.32
2018-09-01T05:26:18.809Z,87.56
2018-09-01T05:28:47.759Z,86.76
2018-09-01T05:31:17.352Z,87.15
2018-09-01T05:33:47.180Z,85.82
2018-09-01T05:36:16.113Z,86.82
2018-09-01T05:38:45.565Z,86.33
2018-09-01T05:41:15.346Z,86.06
2018-09-01T05:43:45.057Z,86.07
2018-09-01T05:46:13.969Z,85.32
2018-09-01T05:48:43.420Z,85.78
2018-09-01T05:51:12.353Z,84.99
2018-09-01T05:53:41.114Z,85.13
2018-09-01T05:56:09.964Z,85.14
2018-09-01T05:58:39.440Z,84.92
2018-09-01T06:01:08.283Z,84.17
2018-09-01T06:03:37.733Z,84.82
2018-09-01T06:06:07.256Z,83.31
2018-09-01T06:08:36.470Z,84.51
2018-09-01T06:11:06.179Z,83.38
2018-09-01T06:13:35.396Z,83.62
2018-09-01T06:16:05.075Z,83.04
2018-09-01T06:18:34.041Z,83.81
2018-09-01T06:21:02.813Z,83.83
2018-09-01T06:23:31.845Z,83.62
2018-09-01T06:26:00.611Z,83.69
2018-09-01T06:28:48.530Z,83.89
2018-09-01T06:31:18.987Z,83.58
2018-09-01T06:33:48.660Z,84.67
2018-09-01T06:36:17.525Z,84.65
2018-09-01T06:38:46.879Z,85.02
2018-09-01T06:41:16.318Z,84.38
2018-09-01T06:43:45.707Z,83.64
2018-09-01T06:46:14.699Z,84.26
2018-09-01T06:48:44.408Z,83.65
2018-09-01T06:51:13.156Z,84.07
2018-09-01T06:53:42.100Z,83.43
2018-09-01T06:56:11.594Z,82.72
2018-09-01T06:58:41.107Z,82.58
2018-09-01T07:01:09.848Z,82.70
2018-09-01T07:03:38.698Z,81.87
2018-09-01T07:06:08.049Z,82.58
2018-09-01T07:08:36.940Z,83.47
2018-09-01T07:11:07.224Z,82.44
2018-09-01T07:13:36.240Z,83.09
2018-09-01T07:16:06.659Z,82.77
2018-09-01T07:18:35.923Z,81.51
2018-09-01T07:21:04.900Z,81.48
2018-09-01T07:23:33.761Z,81.91
2018-09-01T07:26:02.522Z,82.20
2018-09-01T07:28:31.392Z,81.86
2018-09-01T07:31:01.357Z,82.13
2018-09-01T07:33:30.525Z,81.95
2018-09-01T07:35:59.611Z,83.10
2018-09-01T07:38:29.047Z,81.06
2018-09-01T07:40:58.584Z,81.98
2018-09-01T07:43:27.799Z,81.57
2018-09-01T07:45:56.603Z,80.47
2018-09-01T07:48:26.271Z,80.36
2018-09-01T07:50:55.752Z,80.84
2018-09-01T07:53:24.487Z,80.71
2018-09-01T07:55:53.398Z,80.58
2018-09-01T07:58:23.169Z,80.43
2018-09-01T08:00:51.955Z,80.85
2018-09-01T08:03:20.698Z,81.80
2018-09-01T08:05:50.051Z,80.57
2018-09-01T08:08:18.874Z,80.20
2018-09-01T08:10:48.196Z,80.91
2018-09-01T08:13:17.033Z,80.72
2018-09-01T08:15:47.617Z,80.16
2018-09-01T08:18:16.419Z,79.96
2018-09-01T08:20:45.496Z,80.54
2018-09-01T08:23:14.770Z,80.00
2018-09-01T08:25:43.693Z,80.25
2018-09-01T08:28:12.716Z,80.60
2018-09-01T08:30:42.083Z,80.61
2018-09-01T08:33:11.795Z,80.18
2018-09-01T08:35:40.635Z,79.35
2018-09-01T08:38:09.444Z,80.62
2018-09-01T08:40:38.669Z,80.99
2018-09-01T08:43:08.891Z,79.35
2018-09-01T08:45:37.726Z,80.50
2018-09-01T08:48:07.646Z,80.37
2018-09-01T08:50:36.820Z,79.95
2018-09-01T08:53:06.197Z,78.42
2018-09-01T08:55:35.469Z,77.95
2018-09-01T08:58:05.045Z,78.45
2018-09-01T09:00:34.282Z,77.83
2018-09-01T09:03:03.096Z,77.79
2018-09-01T09:05:32.565Z,77.70
2018-09-01T09:08:01.343Z,77.11
2018-09-01T09:10:30.756Z,76.79
2018-09-01T09:12:59.573Z,77.13
2018-09-01T09:15:28.903Z,77.10
2018-09-01T09:17:57.717Z,78.00
2018-09-01T09:20:26.536Z,78.33
2018-09-01T09:22:55.346Z,76.86
2018-09-01T09:25:24.208Z,76.97
2018-09-01T09:27:53.106Z,75.34
2018-09-01T09:30:22.471Z,75.92
2018-09-01T09:32:51.318Z,76.34
2018-09-01T09:35:20.668Z,77.07
2018-09-01T09:37:49.434Z,77.07
2018-09-01T09:40:18.756Z,77.45
2018-09-01T09:42:48.096Z,77.42
2018-09-01T09:45:16.903Z,77.64
2018-09-01T09:47:47.191Z,77.32
2018-09-01T09:50:15.968Z,76.87
2018-09-01T09:52:45.579Z,78.06
2018-09-01T09:55:15.467Z,77.87
2018-09-01T09:57:45.207Z,78.20
2018-09-01T10:00:14.095Z,77.43
2018-09-01T10:02:43.184Z,78.50
2018-09-01T10:05:12.865Z,79.14
2018-09-01T10:07:41.645Z,78.12
2018-09-01T10:10:10.423Z,77.28
2018-09-01T10:12:39.875Z,76.79
2018-09-01T10:15:09.280Z,76.29
2018-09-01T10:17:38.047Z,75.39
2018-09-01T10:20:07.235Z,75.11
2018-09-01T10:22:36.293Z,74.81
2018-09-01T10:25:05.465Z,75.94
2018-09-01T10:27:34.695Z,75.21
2018-09-01T10:30:04.297Z,75.35
2018-09-01T10:32:33.039Z,74.73
2018-09-01T10:35:02.785Z,74.25
2018-09-01T10:37:31.511Z,73.84
2018-09-01T10:40:00.940Z,73.39
2018-09-01T10:42:30.429Z,72.99
2018-09-01T10:44:59.537Z,72.96
2018-09-01T10:47:28.433Z,72.67
2018-09-01T10:49:58.042Z,72.78
2018-09-01T10:52:26.807Z,72.89
2018-09-01T10:54:55.591Z,72.79
2018-09-01T10:57:25.111Z,72.71
2018-09-01T10:59:54.015Z,74.14
2018-09-01T11:02:22.819Z,72.90
2018-09-01T11:04:52.454Z,72.23
2018-09-01T11:07:21.217Z,71.94
2018-09-01T11:09:50.025Z,72.25
2018-09-01T11:12:19.597Z,72.56
2018-09-01T11:14:48.394Z,72.69
2018-09-01T11:17:18.016Z,71.25
2018-09-01T11:19:46.900Z,71.21
2018-09-01T11:22:16.001Z,71.62
2018-09-01T11:24:44.910Z,72.83
2018-09-01T11:27:13.844Z,72.36
2018-09-01T11:29:43.480Z,72.41
2018-09-01T11:32:12.225Z,71.89
2018-09-01T11:34:41.599Z,72.12
2018-09-01T11:37:10.354Z,71.26
2018-09-01T11:39:39.771Z,71.79
2018-09-01T11:42:08.612Z,71.58
2018-09-01T11:44:38.235Z,71.59
2018-09-01T11:47:07.208Z,71.44
2018-09-01T11:49:37.160Z,69.89
2018-09-01T11:52:06.389Z,69.91
2018-09-01T11:54:35.571Z,71.19
2018-09-01T11:57:05.415Z,70.13
2018-09-01T11:59:34.516Z,71.83
2018-09-01T12:02:03.520Z,71.93
2018-09-01T12:04:33.526Z,72.06
2018-09-01T12:07:02.296Z,72.40
2018-09-01T12:09:31.067Z,72.07
2018-09-01T12:12:00.410Z,72.18
2018-09-01T12:14:29.143Z,71.80
2018-09-01T12:16:58.836Z,72.05
2018-09-01T12:19:27.591Z,70.12
2018-09-01T12:21:56.502Z,71.48
2018-09-01T12:24:25.307Z,71.37
2018-09-01T12:26:54.528Z,71.42
2018-09-01T12:29:23.435Z,70.18
2018-09-01T12:31:53.257Z,70.48
2018-09-01T12:34:22.508Z,69.76
2018-09-01T12:36:51.667Z,70.13
2018-09-01T12:39:21.235Z,69.88
2018-09-01T12:41:50.040Z,70.04
2018-09-01T12:44:19.281Z,69.60
2018-09-01T12:46:48.294Z,70.47
2018-09-01T12:49:17.703Z,70.32
2018-09-01T12:51:46.507Z,69.54
2018-09-01T12:54:15.379Z,70.36
2018-09-01T12:56:45.275Z,70.21
2018-09-01T12:59:14.267Z,70.07
2018-09-01T13:01:43.964Z,70.00
2018-09-01T13:04:12.763Z,69.51
2018-09-01T13:06:42.323Z,69.55
2018-09-01T13:09:11.211Z,68.26
2018-09-01T13:11:40.495Z,67.47
2018-09-01T13:14:09.276Z,65.07
2018-09-01T13:16:38.075Z,64.97
2018-09-01T13:19:07.198Z,65.80
2018-09-01T13:21:36.766Z,66.09
2018-09-01T13:24:05.847Z,67.28
2018-09-01T13:26:34.900Z,68.30
2018-09-01T13:29:04.109Z,66.80
2018-09-01T13:31:33.560Z,66.51
2018-09-01T13:34:03.577Z,66.00
2018-09-01T13:36:32.348Z,65.19
2018-09-01T13:39:01.855Z,65.06
2018-09-01T13:41:30.656Z,66.28
2018-09-01T13:44:00.139Z,65.88
2018-09-01T13:46:28.917Z,65.71
2018-09-01T13:48:58.236Z,65.23
2018-09-01T13:51:27.019Z,63.79
2018-09-01T13:53:55.822Z,65.54
2018-09-01T13:56:24.629Z,65.76
2018-09-01T13:58:54.993Z,63.55
2018-09-01T14:01:23.790Z,64.39
2018-09-01T14:03:52.597Z,65.00
2018-09-01T14:06:21.746Z,63.47
2018-09-01T14:08:50.506Z,63.83
2018-09-01T14:11:19.927Z,63.71
2018-09-01T14:16:16.835Z,64.43
2018-09-01T14:18:45.905Z,63.88
2018-09-01T14:21:15.538Z,64.08
2018-09-01T14:23:44.389Z,61.61
2018-09-01T14:26:13.315Z,63.29
2018-09-01T14:28:42.145Z,63.30
2018-09-01T14:31:11.662Z,63.46
2018-09-01T14:33:40.939Z,64.06
2018-09-01T14:36:09.810Z,63.28
2018-09-01T14:38:39.486Z,62.79
2018-09-01T14:41:08.987Z,64.41
2018-09-01T14:43:38.364Z,63.73
2018-09-01T14:46:07.264Z,64.05
2018-09-01T14:48:37.375Z,65.20
2018-09-01T14:51:06.507Z,64.89
2018-09-01T14:53:35.636Z,64.46
2018-09-01T14:56:04.669Z,65.30
2018-09-01T14:58:34.273Z,64.50
2018-09-01T15:01:03.033Z,65.02
2018-09-01T15:03:31.802Z,65.07
2018-09-01T15:06:01.178Z,64.58
2018-09-01T15:08:29.989Z,64.96
2018-09-01T15:10:59.414Z,65.00
2018-09-01T15:13:28.168Z,64.95
2018-09-01T15:15:57.367Z,65.95
2018-09-01T15:18:26.158Z,65.06
2018-09-01T15:20:55.704Z,65.29
2018-09-01T15:23:24.464Z,64.77
2018-09-01T15:25:53.282Z,66.11
2018-09-01T15:28:22.122Z,65.96
2018-09-01T15:30:51.803Z,65.34
2018-09-01T15:33:21.424Z,64.90
2018-09-01T15:35:50.223Z,65.34
2018-09-01T15:38:19.963Z,64.04
2018-09-01T15:40:50.543Z,64.67
2018-09-01T15:43:19.863Z,64.55
2018-09-01T15:45:48.677Z,64.72
2018-09-01T15:48:18.013Z,63.88
2018-09-01T15:50:46.859Z,62.18
2018-09-01T15:53:16.273Z,62.40
2018-09-01T15:55:45.918Z,63.65
2018-09-01T15:58:15.688Z,61.73
2018-09-01T16:00:44.767Z,61.68
2018-09-01T16:03:14.300Z,60.59
2018-09-01T16:05:43.888Z,59.82
2018-09-01T16:08:12.714Z,59.60
2018-09-01T16:10:42.279Z,59.10
2018-09-01T16:13:11.071Z,59.29
2018-09-01T16:15:39.952Z,57.17
2018-09-01T16:18:08.827Z,56.87
2018-09-01T16:20:38.294Z,56.47
2018-09-01T16:23:07.446Z,56.41
2018-09-01T16:25:36.924Z,53.93
2018-09-01T16:28:06.332Z,54.26
2018-09-01T16:30:36.712Z,52.96
2018-09-01T16:33:06.789Z,53.90
2018-09-01T16:35:35.772Z,53.70
2018-09-01T16:38:05.023Z,56.12
2018-09-01T16:40:34.910Z,56.93
2018-09-01T16:43:04.917Z,56.76
2018-09-01T16:45:33.692Z,56.95
2018-09-01T16:48:03.132Z,58.23
2018-09-01T16:50:31.890Z,58.68
2018-09-01T16:53:00.666Z,58.92
2018-09-01T16:55:29.468Z,60.76
2018-09-01T16:58:00.018Z,61.53
2018-09-01T17:00:28.814Z,62.49
2018-09-01T17:02:57.629Z,64.36
2018-09-01T17:05:27.121Z,64.94
2018-09-01T17:07:55.909Z,66.98
2018-09-01T17:10:24.723Z,67.89
2018-09-01T17:12:54.307Z,67.80
2018-09-01T17:15:23.175Z,69.56
2018-09-01T17:17:52.008Z,70.04
2018-09-01T17:20:21.468Z,70.85
2018-09-01T17:22:50.314Z,71.12
2018-09-01T17:25:19.095Z,71.95
2018-09-01T17:27:47.987Z,71.45
2018-09-01T17:30:17.374Z,72.42
2018-09-01T17:32:46.355Z,72.60
2018-09-01T17:35:46.713Z,73.68
2018-09-01T17:38:16.210Z,73.24
2018-09-01T17:40:45.639Z,74.54
2018-09-01T17:43:15.641Z,74.12
2018-09-01T17:45:45.780Z,74.59
2018-09-01T17:48:15.313Z,74.82
2018-09-01T17:50:44.513Z,75.60
2018-09-01T17:53:13.579Z,75.08
2018-09-01T17:55:42.500Z,75.28
2018-09-01T17:58:12.049Z,75.84
2018-09-01T18:00:40.998Z,76.96
2018-09-01T18:03:10.447Z,77.19
2018-09-01T18:05:40.342Z,77.21
2018-09-01T18:08:09.063Z,77.33
2018-09-01T18:10:38.905Z,77.41
2018-09-01T18:13:07.687Z,77.17
2018-09-01T18:15:36.863Z,78.67
2018-09-01T18:18:06.113Z,78.76
2018-09-01T18:20:35.975Z,79.05
2018-09-01T18:23:04.821Z,79.05
2018-09-01T18:25:33.766Z,79.27
2018-09-01T18:28:02.631Z,79.36
2018-09-01T18:30:32.285Z,79.77
2018-09-01T18:33:01.555Z,79.37
2018-09-01T18:35:30.336Z,79.37
2018-09-01T18:37:59.066Z,80.29
2018-09-01T18:40:28.510Z,79.86
2018-09-01T18:42:57.813Z,79.82
2018-09-01T18:45:26.562Z,80.17
2018-09-01T18:47:55.949Z,80.94
2018-09-01T18:50:24.699Z,80.59
2018-09-01T18:52:53.475Z,80.94
2018-09-01T18:55:22.251Z,80.68
2018-09-01T18:57:52.076Z,80.17
2018-09-01T19:00:20.938Z,81.17
2018-09-01T19:02:49.754Z,80.36
2018-09-01T19:05:19.233Z,81.11
2018-09-01T19:07:47.968Z,81.60
2018-09-01T19:10:17.092Z,80.92
2018-09-01T19:12:46.499Z,80.91
2018-09-01T19:15:15.448Z,82.29
2018-09-01T19:17:44.453Z,82.03
2018-09-01T19:20:15.447Z,81.38
2018-09-01T19:22:44.519Z,81.74
2018-09-01T19:25:13.531Z,82.45
2018-09-01T19:27:42.445Z,82.13
2018-09-01T19:30:12.012Z,82.79
2018-09-01T19:32:40.861Z,82.37
2018-09-01T19:35:11.123Z,82.48
2018-09-01T19:37:39.895Z,82.29
2018-09-01T19:40:09.875Z,83.26
2018-09-01T19:42:39.330Z,83.05
2018-09-01T19:45:08.260Z,83.38
2018-09-01T19:47:37.514Z,83.25
2018-09-01T19:50:07.723Z,83.75
2018-09-01T19:52:36.863Z,83.25
2018-09-01T19:55:06.720Z,83.23
2018-09-01T19:57:36.753Z,84.04
2018-09-01T20:00:07.097Z,83.94
2018-09-01T20:02:36.233Z,84.18
2018-09-01T20:05:06.024Z,84.71
2018-09-01T20:07:35.203Z,84.28
2018-09-01T20:10:04.150Z,84.94
2018-09-01T20:13:05.383Z,85.20
2018-09-01T20:15:35.989Z,85.32
2018-09-01T20:18:05.148Z,85.74
2018-09-01T20:20:36.065Z,85.29
2018-09-01T20:23:05.775Z,85.97
2018-09-01T20:25:34.688Z,85.61
2018-09-01T20:28:03.540Z,85.48
2018-09-01T20:30:33.004Z,85.31
2018-09-01T20:33:02.523Z,85.38
2018-09-01T20:35:36.567Z,85.03
2018-09-01T20:38:06.179Z,85.14
2018-09-01T20:40:36.583Z,85.08
2018-09-01T20:43:06.199Z,85.12
2018-09-01T20:45:35.888Z,85.61
2018-09-01T20:48:05.900Z,84.95
2018-09-01T20:50:34.836Z,84.95
2018-09-01T20:53:03.691Z,84.74
2018-09-01T20:55:32.640Z,83.79
2018-09-01T20:58:01.892Z,84.75
2018-09-01T21:00:30.752Z,85.06
2018-09-01T21:02:59.611Z,84.63
2018-09-01T21:05:29.245Z,84.69
2018-09-01T21:07:58.122Z,85.53
2018-09-01T21:10:27.370Z,85.85
2018-09-01T21:12:56.751Z,85.23
2018-09-01T21:15:25.509Z,85.20
2018-09-01T21:17:54.304Z,84.52
2018-09-01T21:20:23.744Z,84.09
2018-09-01T21:22:52.602Z,84.82
2018-09-01T21:25:21.801Z,84.73
2018-09-01T21:27:50.615Z,84.47
2018-09-01T21:30:20.011Z,84.75
2018-09-01T21:32:48.916Z,85.06
2018-09-01T21:35:18.424Z,85.42
2018-09-01T21:37:47.220Z,85.61
2018-09-01T21:40:17.219Z,84.69
2018-09-01T21:42:47.118Z,84.32
2018-09-01T21:45:16.051Z,83.97
2018-09-01T21:47:45.753Z,84.41
2018-09-01T21:50:14.672Z,84.81
2018-09-01T21:52:43.651Z,85.03
2018-09-01T21:55:12.640Z,84.89
2018-09-01T21:57:42.061Z,84.57
2018-09-01T22:00:11.276Z,85.64
2018-09-01T22:02:40.040Z,85.29
2018-09-01T22:05:15.827Z,85.08
2018-09-01T22:07:45.065Z,84.59
2018-09-01T22:10:13.916Z,84.69
2018-09-01T22:12:43.354Z,85.37
2018-09-01T22:15:12.142Z,84.94
2018-09-01T22:17:40.924Z,85.66
2018-09-01T22:20:10.291Z,85.26
2018-09-01T22:22:39.051Z,85.18
2018-09-01T22:25:07.941Z,85.41
2018-09-01T22:27:37.071Z,84.70
2018-09-01T22:30:07.268Z,84.37
2018-09-01T22:32:36.329Z,84.58
2018-09-01T22:35:06.052Z,84.87
2018-09-01T22:37:35.142Z,84.97
2018-09-01T22:40:05.219Z,85.33
2018-09-01T22:42:35.059Z,84.45
2018-09-01T22:45:03.839Z,85.22
2018-09-01T22:47:34.660Z,85.43
2018-09-01T22:50:05.647Z,85.38
2018-09-01T22:52:34.779Z,84.96
2018-09-01T22:55:03.632Z,84.67
2018-09-01T22:57:33.214Z,85.13
2018-09-01T23:00:01.983Z,84.98
2018-09-01T23:02:30.721Z,85.12
2018-09-01T23:05:00.171Z,84.22
2018-09-01T23:07:28.962Z,85.05
2018-09-01T23:09:57.736Z,85.32
2018-09-01T23:12:27.764Z,85.14
2018-09-01T23:14:56.681Z,85.05
2018-09-01T23:17:25.452Z,84.95
2018-09-01T23:19:55.024Z,85.24
2018-09-01T23:22:23.789Z,85.54
2018-09-01T23:24:52.559Z,86.15
2018-09-01T23:27:21.394Z,85.42
2018-09-01T23:29:51.238Z,85.06
2018-09-01T23:32:20.120Z,84.96
2018-09-01T23:34:49.767Z,84.76
2018-09-01T23:37:18.539Z,85.12
2018-09-01T23:39:47.959Z,84.93
2018-09-01T23:42:16.715Z,85.09
2018-09-01T23:44:46.086Z,85.99
2018-09-01T23:47:15.009Z,85.63
2018-09-01T23:49:44.652Z,85.43
2018-09-01T23:52:13.589Z,85.89
2018-09-01T23:54:42.343Z,86.27
2018-09-01T23:57:11.925Z,86.87
2018-09-01T23:59:40.771Z,86.23
